createdAt,value
2022-10-22T00:01:48.218Z,1.40
2022-10-22T00:06:49.923Z,1.10
2022-10-22T00:11:51.840Z,1.45
2022-10-22T00:16:53.566Z,1.55
2022-10-22T00:21:55.388Z,1.05
2022-10-22T00:26:57.110Z,1.20
2022-10-22T00:31:58.907Z,1.02
2022-10-22T00:37:00.920Z,1.00
2022-10-22T00:42:02.645Z,1.40
2022-10-22T00:47:04.452Z,1.50
2022-10-22T00:52:06.811Z,1.10
2022-10-22T00:57:09.439Z,1.50
2022-10-22T01:02:11.233Z,1.50
2022-10-22T01:07:17.767Z,1.15
2022-10-22T01:12:42.835Z,1.20
2022-10-22T01:17:50.815Z,1.23
2022-10-22T01:23:14.305Z,1.52
2022-10-22T01:28:19.078Z,1.00
2022-10-22T01:33:23.782Z,1.20
2022-10-22T01:38:26.409Z,1.17
2022-10-22T01:43:28.119Z,1.20
2022-10-22T01:48:58.878Z,1.30
2022-10-22T01:54:17.466Z,1.50
2022-10-22T01:59:30.813Z,1.63
2022-10-22T02:04:48.497Z,2.15
2022-10-22T02:09:53.163Z,1.13
2022-10-22T02:14:56.296Z,1.27
2022-10-22T02:20:03.045Z,1.52
2022-10-22T02:25:06.339Z,2.15
2022-10-22T02:30:17.825Z,1.50
2022-10-22T02:35:22.954Z,1.90
2022-10-22T02:40:25.648Z,1.50
2022-10-22T02:45:27.793Z,1.80
2022-10-22T02:50:29.611Z,1.83
2022-10-22T02:55:31.797Z,2.00
2022-10-22T03:00:33.542Z,1.73
2022-10-22T03:05:35.376Z,2.00
2022-10-22T03:10:37.473Z,2.30
2022-10-22T03:15:39.211Z,1.60
2022-10-22T03:20:41.914Z,2.05
2022-10-22T03:25:46.556Z,1.98
2022-10-22T03:30:48.293Z,2.25
2022-10-22T03:35:50.054Z,2.05
2022-10-22T03:40:51.919Z,2.70
2022-10-22T03:45:53.654Z,2.40
2022-10-22T03:50:55.420Z,1.90
2022-10-22T03:55:57.139Z,1.55
2022-10-22T04:01:05.784Z,1.10
2022-10-22T04:06:10.468Z,1.40
2022-10-22T04:11:13.723Z,1.92
2022-10-22T04:16:18.914Z,1.77
2022-10-22T04:21:21.181Z,1.77
2022-10-22T04:26:23.310Z,1.70
2022-10-22T04:31:25.883Z,2.00
2022-10-22T04:36:28.607Z,1.90
2022-10-22T04:41:33.013Z,2.00
2022-10-22T04:46:36.222Z,2.33
2022-10-22T04:51:37.956Z,3.03
2022-10-22T04:56:39.682Z,2.20
2022-10-22T05:01:43.588Z,2.22
2022-10-22T05:06:45.512Z,1.90
2022-10-22T05:11:49.950Z,2.10
2022-10-22T05:16:52.728Z,1.80
2022-10-22T05:21:56.792Z,1.50
2022-10-22T05:27:00.041Z,1.50
2022-10-22T05:32:01.782Z,1.40
2022-10-22T05:37:03.594Z,1.45
2022-10-22T05:42:05.603Z,1.60
2022-10-22T05:47:07.378Z,1.67
2022-10-22T05:52:09.441Z,2.17
2022-10-22T05:57:11.167Z,2.70
2022-10-22T06:02:12.991Z,2.15
2022-10-22T06:07:16.050Z,2.28
2022-10-22T06:12:17.773Z,2.30
2022-10-22T06:17:19.918Z,2.45
2022-10-22T06:22:21.618Z,2.00
2022-10-22T06:27:23.344Z,2.20
2022-10-22T06:32:25.050Z,1.88
2022-10-22T06:37:26.790Z,1.83
2022-10-22T06:42:28.971Z,1.63
2022-10-22T06:47:33.281Z,2.80
2022-10-22T06:57:36.713Z,1.35
2022-10-22T07:02:38.702Z,1.50
2022-10-22T07:07:40.706Z,1.23
2022-10-22T07:12:42.958Z,0.95
2022-10-22T07:17:45.165Z,0.90
2022-10-22T07:22:46.881Z,1.00
2022-10-22T07:27:48.605Z,1.30
2022-10-22T07:32:50.315Z,0.93
2022-10-22T07:37:52.043Z,0.90
2022-10-22T07:42:53.887Z,0.93
2022-10-22T07:47:55.626Z,0.80
2022-10-22T07:52:58.326Z,1.10
2022-10-22T07:58:00.642Z,1.00
2022-10-22T08:03:02.358Z,1.00
2022-10-22T08:08:04.130Z,1.05
2022-10-22T08:13:07.086Z,0.52
2022-10-22T08:18:08.963Z,0.70
2022-10-22T08:23:10.713Z,1.00
2022-10-22T08:28:12.511Z,1.38
2022-10-22T08:33:14.567Z,0.80
2022-10-22T08:38:17.243Z,0.52
2022-10-22T08:43:53.447Z,0.45
2022-10-22T08:49:01.114Z,0.50
2022-10-22T08:54:10.963Z,0.60
2022-10-22T08:59:33.905Z,0.50
2022-10-22T09:04:46.019Z,0.52
2022-10-22T09:09:51.690Z,0.50
2022-10-22T09:14:53.855Z,0.60
2022-10-22T09:20:23.746Z,0.50
2022-10-22T09:25:32.650Z,0.40
2022-10-22T09:30:38.584Z,0.60
2022-10-22T09:36:13.693Z,0.50
2022-10-22T09:41:16.585Z,0.40
2022-10-22T09:46:24.481Z,0.60
2022-10-22T09:51:40.389Z,0.60
2022-10-22T09:56:43.222Z,0.57
2022-10-22T10:01:45.458Z,0.60
2022-10-22T10:06:55.597Z,0.70
2022-10-22T10:12:21.616Z,0.57
2022-10-22T10:17:34.034Z,0.57
2022-10-22T10:22:58.040Z,0.40
2022-10-22T10:28:24.532Z,0.52
2022-10-22T10:33:44.796Z,0.60
2022-10-22T10:39:01.515Z,0.85
2022-10-22T10:44:36.577Z,0.80
2022-10-22T10:49:38.350Z,0.50
2022-10-22T10:55:13.280Z,0.60
2022-10-22T11:00:19.964Z,0.30
2022-10-22T11:05:24.687Z,0.40
2022-10-22T11:10:31.779Z,0.40
2022-10-22T11:15:36.906Z,0.45
2022-10-22T11:20:49.942Z,0.43
2022-10-22T11:25:51.752Z,0.55
2022-10-22T11:31:01.845Z,0.30
2022-10-22T11:36:05.786Z,0.63
2022-10-22T11:41:14.314Z,0.60
2022-10-22T11:46:16.000Z,0.60
2022-10-22T11:51:33.688Z,0.52
2022-10-22T11:56:39.321Z,0.50
2022-10-22T12:01:42.808Z,0.30
2022-10-22T12:06:57.652Z,0.63
2022-10-22T12:12:14.718Z,0.60
2022-10-22T12:17:18.384Z,0.40
2022-10-22T12:22:30.153Z,0.68
2022-10-22T12:27:37.355Z,0.45
2022-10-22T12:32:42.989Z,0.50
2022-10-22T12:37:45.347Z,0.50
2022-10-22T12:42:52.212Z,0.40
2022-10-22T12:48:03.093Z,0.40
2022-10-22T12:53:22.490Z,0.50
2022-10-22T12:58:54.885Z,0.40
2022-10-22T13:04:05.300Z,0.57
2022-10-22T13:09:27.595Z,0.50
2022-10-22T13:14:33.171Z,0.43
2022-10-22T13:19:54.195Z,0.47
2022-10-22T13:24:58.978Z,0.50
2022-10-22T13:30:03.705Z,0.80
2022-10-22T13:35:05.798Z,0.60
2022-10-22T13:40:15.354Z,0.50
2022-10-22T13:45:17.814Z,0.68
2022-10-22T13:50:21.089Z,0.60
2022-10-22T13:55:29.107Z,0.65
2022-10-22T14:00:31.505Z,0.60
2022-10-22T14:05:33.296Z,0.40
2022-10-22T14:10:35.017Z,0.50
2022-10-22T14:15:37.586Z,0.70
2022-10-22T14:20:42.137Z,0.65
2022-10-22T14:25:44.630Z,0.50
2022-10-22T14:30:47.009Z,0.50
2022-10-22T14:35:49.799Z,0.60
2022-10-22T14:40:51.838Z,0.50
2022-10-22T14:45:54.880Z,0.60
2022-10-22T14:50:56.677Z,0.70
2022-10-22T14:56:00.396Z,0.85
2022-10-22T15:01:03.344Z,0.73
2022-10-22T15:06:05.733Z,0.60
2022-10-22T15:11:10.406Z,0.52
2022-10-22T15:16:14.624Z,0.60
2022-10-22T15:21:20.573Z,0.80
2022-10-22T15:26:22.332Z,0.60
2022-10-22T15:31:52.971Z,0.60
2022-10-22T15:36:56.905Z,0.80
2022-10-22T15:41:59.847Z,0.60
2022-10-22T15:47:04.928Z,0.70
2022-10-22T15:52:07.362Z,0.80
2022-10-22T15:57:10.694Z,0.60
2022-10-22T16:02:12.818Z,0.63
2022-10-22T16:07:14.618Z,0.70
2022-10-22T16:12:17.314Z,0.70
2022-10-22T16:17:19.201Z,1.15
2022-10-22T16:22:20.930Z,0.77
2022-10-22T16:27:22.663Z,0.50
2022-10-22T16:32:24.425Z,0.70
2022-10-22T16:37:26.135Z,0.73
2022-10-22T16:42:27.827Z,0.80
2022-10-22T16:47:29.974Z,0.80
2022-10-22T16:52:32.293Z,1.30
2022-10-22T16:57:33.997Z,0.98
2022-10-22T17:02:37.268Z,0.98
2022-10-22T17:07:39.035Z,0.70
2022-10-22T17:12:41.603Z,0.77
2022-10-22T17:17:43.552Z,0.55
2022-10-22T17:22:46.271Z,0.75
2022-10-22T17:27:48.444Z,0.90
2022-10-22T17:32:50.211Z,0.80
2022-10-22T17:37:51.950Z,1.08
2022-10-22T17:42:54.074Z,0.98
2022-10-22T17:47:57.191Z,0.80
2022-10-22T17:52:58.914Z,1.38
2022-10-22T17:58:01.310Z,0.90
2022-10-22T18:03:03.222Z,1.00
2022-10-22T18:08:07.791Z,0.90
2022-10-22T18:13:09.670Z,0.90
2022-10-22T18:18:11.553Z,1.13
2022-10-22T18:23:13.893Z,0.90
2022-10-22T18:28:17.695Z,0.70
2022-10-22T18:33:23.875Z,0.90
2022-10-22T18:38:25.582Z,0.70
2022-10-22T18:43:27.489Z,0.75
2022-10-22T18:48:29.179Z,0.93
2022-10-22T18:53:31.130Z,0.80
2022-10-22T18:58:40.757Z,1.60
2022-10-22T19:03:42.556Z,0.82
2022-10-22T19:08:46.895Z,0.70
2022-10-22T19:13:53.092Z,1.00
2022-10-22T19:19:03.835Z,1.00
2022-10-22T19:24:05.926Z,1.00
2022-10-22T19:29:08.307Z,1.00
2022-10-22T19:34:10.328Z,0.82
2022-10-22T19:39:16.409Z,1.00
2022-10-22T19:44:19.729Z,0.80
2022-10-22T19:49:22.990Z,0.80
2022-10-22T19:54:25.270Z,0.60
2022-10-22T19:59:29.796Z,0.95
2022-10-22T20:04:33.267Z,0.75
2022-10-22T20:09:35.106Z,0.90
2022-10-22T20:14:37.463Z,0.70
2022-10-22T20:19:39.216Z,0.77
2022-10-22T20:24:40.921Z,1.10
2022-10-22T20:29:42.690Z,1.30
2022-10-22T20:34:44.499Z,1.05
2022-10-22T20:39:48.548Z,1.05
2022-10-22T20:44:50.600Z,0.85
2022-10-22T20:49:52.387Z,0.95
2022-10-22T20:54:54.097Z,1.05
2022-10-22T20:59:57.338Z,1.20
2022-10-22T21:04:59.119Z,1.33
2022-10-22T21:10:00.853Z,1.38
2022-10-22T21:15:03.106Z,1.30
2022-10-22T21:20:05.420Z,1.30
2022-10-22T21:25:07.782Z,1.40
2022-10-22T21:30:09.992Z,2.63
2022-10-22T21:35:12.344Z,2.58
2022-10-22T21:40:14.266Z,2.30
2022-10-22T21:45:19.876Z,2.60
2022-10-22T21:50:23.231Z,2.20
2022-10-22T21:55:25.035Z,2.28
2022-10-22T22:00:27.193Z,2.30
2022-10-22T22:05:29.055Z,2.30
2022-10-22T22:10:30.946Z,2.00
2022-10-22T22:15:34.609Z,1.85
2022-10-22T22:20:36.881Z,1.77
2022-10-22T22:25:38.596Z,1.90
2022-10-22T22:30:40.301Z,2.00
2022-10-22T22:35:44.500Z,1.80
2022-10-22T22:40:46.213Z,1.98
2022-10-22T22:45:48.055Z,2.40
2022-10-22T22:50:49.785Z,1.90
2022-10-22T22:55:51.518Z,1.60
2022-10-22T23:00:53.288Z,1.80
2022-10-22T23:05:55.067Z,1.60
2022-10-22T23:11:02.839Z,1.63
2022-10-22T23:16:15.782Z,1.70
2022-10-22T23:21:38.192Z,1.73
2022-10-22T23:26:43.343Z,1.73
2022-10-22T23:31:46.290Z,1.98
2022-10-22T23:36:48.275Z,1.80
2022-10-22T23:41:50.837Z,2.10
2022-10-22T23:46:52.639Z,1.70
2022-10-22T23:51:54.355Z,1.40
2022-10-22T23:56:56.063Z,1.55
